sensor_id;sensor_type;location;lat;lon;timestamp;P1;durP1;ratioP1;P2;durP2;ratioP2
32734;SDS011;19112;51.076;3.706;2022-11-06T00:01:05;15.52;;;5.22;;
32734;SDS011;19112;51.076;3.706;2022-11-06T00:03:37;19.25;;;5.05;;
32734;SDS011;19112;51.076;3.706;2022-11-06T00:06:10;18.83;;;5.43;;
32734;SDS011;19112;51.076;3.706;2022-11-06T00:09:01;19.33;;;5.50;;
32734;SDS011;19112;51.076;3.706;2022-11-06T00:11:29;18.23;;;4.80;;
32734;SDS011;19112;51.076;3.706;2022-11-06T00:13:55;19.33;;;5.47;;
32734;SDS011;19112;51.076;3.706;2022-11-06T00:16:21;17.70;;;5.07;;
32734;SDS011;19112;51.076;3.706;2022-11-06T00:18:47;19.38;;;5.00;;
32734;SDS011;19112;51.076;3.706;2022-11-06T00:23:45;17.58;;;4.85;;
32734;SDS011;19112;51.076;3.706;2022-11-06T00:26:13;27.55;;;5.30;;
32734;SDS011;19112;51.076;3.706;2022-11-06T00:28:45;15.93;;;4.82;;
32734;SDS011;19112;51.076;3.706;2022-11-06T00:31:12;22.67;;;6.32;;
32734;SDS011;19112;51.076;3.706;2022-11-06T00:33:41;16.33;;;4.30;;
32734;SDS011;19112;51.076;3.706;2022-11-06T00:36:08;19.10;;;5.00;;
32734;SDS011;19112;51.076;3.706;2022-11-06T00:38:40;21.15;;;5.15;;
32734;SDS011;19112;51.076;3.706;2022-11-06T00:41:07;15.15;;;5.35;;
32734;SDS011;19112;51.076;3.706;2022-11-06T00:43:35;15.65;;;5.30;;
32734;SDS011;19112;51.076;3.706;2022-11-06T00:46:01;20.60;;;5.82;;
32734;SDS011;19112;51.076;3.706;2022-11-06T00:48:29;19.60;;;5.00;;
32734;SDS011;19112;51.076;3.706;2022-11-06T00:51:00;19.80;;;5.22;;
32734;SDS011;19112;51.076;3.706;2022-11-06T00:53:40;20.15;;;5.90;;
32734;SDS011;19112;51.076;3.706;2022-11-06T00:56:08;18.30;;;4.80;;
32734;SDS011;19112;51.076;3.706;2022-11-06T00:58:39;20.73;;;4.55;;
32734;SDS011;19112;51.076;3.706;2022-11-06T01:01:11;18.02;;;5.05;;
32734;SDS011;19112;51.076;3.706;2022-11-06T01:03:40;17.58;;;4.90;;
32734;SDS011;19112;51.076;3.706;2022-11-06T01:06:13;22.77;;;5.35;;
32734;SDS011;19112;51.076;3.706;2022-11-06T01:08:45;17.75;;;5.00;;
32734;SDS011;19112;51.076;3.706;2022-11-06T01:11:17;19.38;;;5.68;;
32734;SDS011;19112;51.076;3.706;2022-11-06T01:13:52;18.65;;;4.93;;
32734;SDS011;19112;51.076;3.706;2022-11-06T01:16:20;22.77;;;5.25;;
32734;SDS011;19112;51.076;3.706;2022-11-06T01:18:47;21.25;;;6.03;;
32734;SDS011;19112;51.076;3.706;2022-11-06T01:21:15;25.48;;;5.60;;
32734;SDS011;19112;51.076;3.706;2022-11-06T01:23:45;21.85;;;6.00;;
32734;SDS011;19112;51.076;3.706;2022-11-06T01:26:12;21.50;;;5.35;;
32734;SDS011;19112;51.076;3.706;2022-11-06T01:28:39;21.00;;;5.68;;
32734;SDS011;19112;51.076;3.706;2022-11-06T01:31:07;22.88;;;5.90;;
32734;SDS011;19112;51.076;3.706;2022-11-06T01:33:35;18.65;;;5.30;;
32734;SDS011;19112;51.076;3.706;2022-11-06T01:36:02;20.02;;;5.53;;
32734;SDS011;19112;51.076;3.706;2022-11-06T01:38:28;19.33;;;4.95;;
32734;SDS011;19112;51.076;3.706;2022-11-06T01:40:54;20.17;;;5.05;;
32734;SDS011;19112;51.076;3.706;2022-11-06T01:44:03;21.33;;;5.10;;
32734;SDS011;19112;51.076;3.706;2022-11-06T01:46:31;17.45;;;4.95;;
32734;SDS011;19112;51.076;3.706;2022-11-06T01:49:06;18.92;;;6.07;;
32734;SDS011;19112;51.076;3.706;2022-11-06T01:51:44;18.10;;;5.03;;
32734;SDS011;19112;51.076;3.706;2022-11-06T01:54:14;18.73;;;5.30;;
32734;SDS011;19112;51.076;3.706;2022-11-06T01:56:41;16.52;;;5.30;;
32734;SDS011;19112;51.076;3.706;2022-11-06T01:59:12;21.58;;;5.47;;
32734;SDS011;19112;51.076;3.706;2022-11-06T02:01:42;15.50;;;5.10;;
32734;SDS011;19112;51.076;3.706;2022-11-06T02:04:29;21.75;;;5.38;;
32734;SDS011;19112;51.076;3.706;2022-11-06T02:07:00;20.33;;;5.45;;
32734;SDS011;19112;51.076;3.706;2022-11-06T02:09:26;21.42;;;5.28;;
32734;SDS011;19112;51.076;3.706;2022-11-06T02:11:56;15.43;;;4.70;;
32734;SDS011;19112;51.076;3.706;2022-11-06T02:14:35;20.23;;;5.63;;
32734;SDS011;19112;51.076;3.706;2022-11-06T02:20:02;22.80;;;5.15;;
32734;SDS011;19112;51.076;3.706;2022-11-06T02:29:08;20.00;;;5.45;;
32734;SDS011;19112;51.076;3.706;2022-11-06T02:31:41;14.50;;;4.63;;
32734;SDS011;19112;51.076;3.706;2022-11-06T02:34:12;16.95;;;4.93;;
32734;SDS011;19112;51.076;3.706;2022-11-06T02:36:44;17.08;;;4.72;;
32734;SDS011;19112;51.076;3.706;2022-11-06T02:39:19;19.13;;;5.05;;
32734;SDS011;19112;51.076;3.706;2022-11-06T02:41:49;21.05;;;5.55;;
32734;SDS011;19112;51.076;3.706;2022-11-06T02:44:19;19.90;;;5.35;;
32734;SDS011;19112;51.076;3.706;2022-11-06T02:46:50;19.33;;;4.95;;
32734;SDS011;19112;51.076;3.706;2022-11-06T02:52:27;17.75;;;4.50;;
32734;SDS011;19112;51.076;3.706;2022-11-06T02:55:08;15.93;;;4.72;;
32734;SDS011;19112;51.076;3.706;2022-11-06T02:57:42;16.92;;;5.03;;
32734;SDS011;19112;51.076;3.706;2022-11-06T03:00:13;12.32;;;4.35;;
32734;SDS011;19112;51.076;3.706;2022-11-06T03:03:00;16.77;;;4.55;;
32734;SDS011;19112;51.076;3.706;2022-11-06T03:06:11;18.73;;;4.80;;
32734;SDS011;19112;51.076;3.706;2022-11-06T03:08:52;14.02;;;4.30;;
32734;SDS011;19112;51.076;3.706;2022-11-06T03:11:38;17.00;;;4.05;;
32734;SDS011;19112;51.076;3.706;2022-11-06T03:30:35;14.13;;;4.40;;
32734;SDS011;19112;51.076;3.706;2022-11-06T03:33:16;12.27;;;4.10;;
32734;SDS011;19112;51.076;3.706;2022-11-06T03:35:49;12.77;;;4.20;;
32734;SDS011;19112;51.076;3.706;2022-11-06T03:38:32;16.17;;;4.18;;
32734;SDS011;19112;51.076;3.706;2022-11-06T03:41:31;20.83;;;4.70;;
32734;SDS011;19112;51.076;3.706;2022-11-06T03:44:12;18.73;;;4.60;;
32734;SDS011;19112;51.076;3.706;2022-11-06T03:46:47;18.00;;;4.72;;
32734;SDS011;19112;51.076;3.706;2022-11-06T03:49:40;15.15;;;4.35;;
32734;SDS011;19112;51.076;3.706;2022-11-06T03:52:15;16.98;;;4.03;;
32734;SDS011;19112;51.076;3.706;2022-11-06T03:54:52;12.95;;;4.13;;
32734;SDS011;19112;51.076;3.706;2022-11-06T03:57:42;14.75;;;4.32;;
32734;SDS011;19112;51.076;3.706;2022-11-06T04:00:21;19.08;;;4.50;;
32734;SDS011;19112;51.076;3.706;2022-11-06T04:02:54;9.75;;;3.67;;
32734;SDS011;19112;51.076;3.706;2022-11-06T04:05:33;19.10;;;4.38;;
32734;SDS011;19112;51.076;3.706;2022-11-06T04:10:51;12.25;;;4.05;;
32734;SDS011;19112;51.076;3.706;2022-11-06T04:13:40;15.48;;;3.90;;
32734;SDS011;19112;51.076;3.706;2022-11-06T04:16:30;17.77;;;5.40;;
32734;SDS011;19112;51.076;3.706;2022-11-06T04:19:00;15.20;;;4.25;;
32734;SDS011;19112;51.076;3.706;2022-11-06T04:21:42;20.33;;;4.28;;
32734;SDS011;19112;51.076;3.706;2022-11-06T04:27:52;17.88;;;4.10;;
32734;SDS011;19112;51.076;3.706;2022-11-06T04:33:36;13.07;;;4.60;;
32734;SDS011;19112;51.076;3.706;2022-11-06T04:47:08;16.85;;;3.92;;
32734;SDS011;19112;51.076;3.706;2022-11-06T04:49:40;19.17;;;3.83;;
32734;SDS011;19112;51.076;3.706;2022-11-06T04:52:17;17.40;;;4.50;;
32734;SDS011;19112;51.076;3.706;2022-11-06T04:54:49;21.48;;;4.80;;
32734;SDS011;19112;51.076;3.706;2022-11-06T04:57:16;11.75;;;3.70;;
32734;SDS011;19112;51.076;3.706;2022-11-06T04:59:42;16.10;;;3.50;;
32734;SDS011;19112;51.076;3.706;2022-11-06T05:02:08;17.38;;;3.85;;
32734;SDS011;19112;51.076;3.706;2022-11-06T05:04:35;18.65;;;3.95;;
32734;SDS011;19112;51.076;3.706;2022-11-06T05:07:00;15.70;;;3.80;;
32734;SDS011;19112;51.076;3.706;2022-11-06T05:09:27;10.20;;;3.00;;
32734;SDS011;19112;51.076;3.706;2022-11-06T05:11:52;19.80;;;4.47;;
32734;SDS011;19112;51.076;3.706;2022-11-06T05:14:18;18.15;;;3.53;;
32734;SDS011;19112;51.076;3.706;2022-11-06T05:16:44;16.63;;;3.90;;
32734;SDS011;19112;51.076;3.706;2022-11-06T05:19:10;16.65;;;3.40;;
32734;SDS011;19112;51.076;3.706;2022-11-06T05:21:36;14.40;;;3.40;;
32734;SDS011;19112;51.076;3.706;2022-11-06T05:24:20;14.15;;;3.65;;
32734;SDS011;19112;51.076;3.706;2022-11-06T05:26:46;19.23;;;3.70;;
32734;SDS011;19112;51.076;3.706;2022-11-06T05:29:11;13.55;;;4.55;;
32734;SDS011;19112;51.076;3.706;2022-11-06T05:31:38;11.48;;;3.60;;
32734;SDS011;19112;51.076;3.706;2022-11-06T05:34:04;18.63;;;3.92;;
32734;SDS011;19112;51.076;3.706;2022-11-06T05:36:30;17.05;;;3.85;;
32734;SDS011;19112;51.076;3.706;2022-11-06T05:38:55;15.77;;;3.30;;
32734;SDS011;19112;51.076;3.706;2022-11-06T05:41:21;13.13;;;3.78;;
32734;SDS011;19112;51.076;3.706;2022-11-06T05:43:47;15.85;;;3.15;;
32734;SDS011;19112;51.076;3.706;2022-11-06T05:46:13;14.88;;;3.67;;
32734;SDS011;19112;51.076;3.706;2022-11-06T05:48:38;15.52;;;3.60;;
32734;SDS011;19112;51.076;3.706;2022-11-06T05:51:05;22.65;;;3.30;;
32734;SDS011;19112;51.076;3.706;2022-11-06T05:53:32;13.68;;;3.30;;
32734;SDS011;19112;51.076;3.706;2022-11-06T05:56:01;14.95;;;3.45;;
32734;SDS011;19112;51.076;3.706;2022-11-06T05:58:28;13.82;;;3.47;;
32734;SDS011;19112;51.076;3.706;2022-11-06T06:00:54;13.40;;;3.42;;
32734;SDS011;19112;51.076;3.706;2022-11-06T06:03:20;14.85;;;3.42;;
32734;SDS011;19112;51.076;3.706;2022-11-06T06:05:47;13.52;;;3.63;;
32734;SDS011;19112;51.076;3.706;2022-11-06T06:08:13;14.73;;;3.35;;
32734;SDS011;19112;51.076;3.706;2022-11-06T06:10:43;12.35;;;3.55;;
32734;SDS011;19112;51.076;3.706;2022-11-06T06:13:10;12.93;;;2.97;;
32734;SDS011;19112;51.076;3.706;2022-11-06T06:15:37;14.95;;;3.47;;
32734;SDS011;19112;51.076;3.706;2022-11-06T06:18:03;15.75;;;3.75;;
32734;SDS011;19112;51.076;3.706;2022-11-06T06:20:30;21.17;;;4.20;;
32734;SDS011;19112;51.076;3.706;2022-11-06T06:22:56;17.63;;;3.60;;
32734;SDS011;19112;51.076;3.706;2022-11-06T06:25:23;15.77;;;3.40;;
32734;SDS011;19112;51.076;3.706;2022-11-06T06:27:50;10.68;;;3.50;;
32734;SDS011;19112;51.076;3.706;2022-11-06T06:30:16;16.42;;;3.75;;
32734;SDS011;19112;51.076;3.706;2022-11-06T06:32:43;17.30;;;3.30;;
32734;SDS011;19112;51.076;3.706;2022-11-06T06:35:09;16.05;;;3.28;;
32734;SDS011;19112;51.076;3.706;2022-11-06T06:37:35;12.90;;;3.00;;
32734;SDS011;19112;51.076;3.706;2022-11-06T06:40:01;17.88;;;3.55;;
32734;SDS011;19112;51.076;3.706;2022-11-06T06:42:28;12.63;;;3.28;;
32734;SDS011;19112;51.076;3.706;2022-11-06T06:44:54;19.20;;;3.25;;
32734;SDS011;19112;51.076;3.706;2022-11-06T06:47:20;19.80;;;3.60;;
32734;SDS011;19112;51.076;3.706;2022-11-06T06:49:46;11.77;;;3.10;;
32734;SDS011;19112;51.076;3.706;2022-11-06T06:52:12;14.48;;;3.30;;
32734;SDS011;19112;51.076;3.706;2022-11-06T06:54:38;14.68;;;3.75;;
32734;SDS011;19112;51.076;3.706;2022-11-06T06:57:04;14.60;;;3.00;;
32734;SDS011;19112;51.076;3.706;2022-11-06T06:59:33;14.63;;;3.95;;
32734;SDS011;19112;51.076;3.706;2022-11-06T07:01:59;14.77;;;4.07;;
32734;SDS011;19112;51.076;3.706;2022-11-06T07:04:25;16.83;;;3.38;;
32734;SDS011;19112;51.076;3.706;2022-11-06T07:06:54;16.98;;;3.35;;
32734;SDS011;19112;51.076;3.706;2022-11-06T07:09:20;12.95;;;3.13;;
32734;SDS011;19112;51.076;3.706;2022-11-06T07:11:48;11.13;;;2.90;;
32734;SDS011;19112;51.076;3.706;2022-11-06T07:14:14;13.23;;;3.42;;
32734;SDS011;19112;51.076;3.706;2022-11-06T07:16:39;17.88;;;3.42;;
32734;SDS011;19112;51.076;3.706;2022-11-06T07:19:05;10.20;;;3.13;;
32734;SDS011;19112;51.076;3.706;2022-11-06T07:21:31;15.07;;;3.30;;
32734;SDS011;19112;51.076;3.706;2022-11-06T07:23:57;11.27;;;3.38;;
32734;SDS011;19112;51.076;3.706;2022-11-06T07:26:23;13.73;;;2.85;;
32734;SDS011;19112;51.076;3.706;2022-11-06T07:28:49;12.63;;;3.00;;
32734;SDS011;19112;51.076;3.706;2022-11-06T07:31:14;12.30;;;2.90;;
32734;SDS011;19112;51.076;3.706;2022-11-06T07:33:40;16.75;;;2.78;;
32734;SDS011;19112;51.076;3.706;2022-11-06T07:36:10;14.73;;;3.17;;
32734;SDS011;19112;51.076;3.706;2022-11-06T07:38:38;13.63;;;2.78;;
32734;SDS011;19112;51.076;3.706;2022-11-06T07:41:07;13.60;;;2.90;;
32734;SDS011;19112;51.076;3.706;2022-11-06T07:43:35;12.75;;;2.67;;
32734;SDS011;19112;51.076;3.706;2022-11-06T07:46:02;11.25;;;2.85;;
32734;SDS011;19112;51.076;3.706;2022-11-06T07:48:31;11.77;;;2.65;;
32734;SDS011;19112;51.076;3.706;2022-11-06T07:50:57;15.10;;;3.35;;
32734;SDS011;19112;51.076;3.706;2022-11-06T07:53:25;10.70;;;2.70;;
32734;SDS011;19112;51.076;3.706;2022-11-06T07:55:52;12.27;;;3.45;;
32734;SDS011;19112;51.076;3.706;2022-11-06T07:58:20;13.77;;;2.90;;
32734;SDS011;19112;51.076;3.706;2022-11-06T08:00:47;12.75;;;3.40;;
32734;SDS011;19112;51.076;3.706;2022-11-06T08:03:18;12.98;;;2.97;;
32734;SDS011;19112;51.076;3.706;2022-11-06T08:05:45;10.25;;;3.00;;
32734;SDS011;19112;51.076;3.706;2022-11-06T08:08:11;11.38;;;2.90;;
32734;SDS011;19112;51.076;3.706;2022-11-06T08:10:37;10.32;;;2.47;;
32734;SDS011;19112;51.076;3.706;2022-11-06T08:13:11;14.77;;;3.15;;
32734;SDS011;19112;51.076;3.706;2022-11-06T08:15:40;16.40;;;3.50;;
32734;SDS011;19112;51.076;3.706;2022-11-06T08:18:07;14.15;;;3.58;;
32734;SDS011;19112;51.076;3.706;2022-11-06T08:20:35;14.45;;;3.33;;
32734;SDS011;19112;51.076;3.706;2022-11-06T08:23:04;11.80;;;3.00;;
32734;SDS011;19112;51.076;3.706;2022-11-06T08:25:33;13.55;;;3.08;;
32734;SDS011;19112;51.076;3.706;2022-11-06T08:27:59;11.50;;;2.95;;
32734;SDS011;19112;51.076;3.706;2022-11-06T08:30:27;10.45;;;2.42;;
32734;SDS011;19112;51.076;3.706;2022-11-06T08:32:54;19.08;;;3.70;;
32734;SDS011;19112;51.076;3.706;2022-11-06T08:35:24;13.75;;;2.70;;
32734;SDS011;19112;51.076;3.706;2022-11-06T08:37:50;11.73;;;2.63;;
32734;SDS011;19112;51.076;3.706;2022-11-06T08:40:16;13.70;;;2.80;;
32734;SDS011;19112;51.076;3.706;2022-11-06T08:42:42;12.05;;;3.05;;
32734;SDS011;19112;51.076;3.706;2022-11-06T08:45:08;17.80;;;3.20;;
32734;SDS011;19112;51.076;3.706;2022-11-06T08:47:34;8.55;;;2.60;;
32734;SDS011;19112;51.076;3.706;2022-11-06T08:49:59;14.60;;;2.83;;
32734;SDS011;19112;51.076;3.706;2022-11-06T08:52:25;10.10;;;2.47;;
32734;SDS011;19112;51.076;3.706;2022-11-06T08:54:51;9.43;;;2.83;;
32734;SDS011;19112;51.076;3.706;2022-11-06T08:57:17;13.68;;;2.75;;
32734;SDS011;19112;51.076;3.706;2022-11-06T08:59:43;13.50;;;2.97;;
32734;SDS011;19112;51.076;3.706;2022-11-06T09:02:10;16.08;;;3.08;;
32734;SDS011;19112;51.076;3.706;2022-11-06T09:04:37;12.48;;;3.10;;
32734;SDS011;19112;51.076;3.706;2022-11-06T09:07:03;12.70;;;2.95;;
32734;SDS011;19112;51.076;3.706;2022-11-06T09:09:29;10.82;;;2.58;;
32734;SDS011;19112;51.076;3.706;2022-11-06T09:11:58;11.73;;;2.63;;
32734;SDS011;19112;51.076;3.706;2022-11-06T09:14:25;18.13;;;3.03;;
32734;SDS011;19112;51.076;3.706;2022-11-06T09:16:52;16.67;;;3.35;;
32734;SDS011;19112;51.076;3.706;2022-11-06T09:19:18;15.88;;;2.78;;
32734;SDS011;19112;51.076;3.706;2022-11-06T09:21:44;16.55;;;3.15;;
32734;SDS011;19112;51.076;3.706;2022-11-06T09:24:10;14.23;;;2.90;;
32734;SDS011;19112;51.076;3.706;2022-11-06T09:26:36;12.65;;;2.85;;
32734;SDS011;19112;51.076;3.706;2022-11-06T09:29:01;13.23;;;3.10;;
32734;SDS011;19112;51.076;3.706;2022-11-06T09:31:27;10.48;;;2.53;;
32734;SDS011;19112;51.076;3.706;2022-11-06T09:33:53;13.13;;;3.30;;
32734;SDS011;19112;51.076;3.706;2022-11-06T09:36:19;14.70;;;2.75;;
32734;SDS011;19112;51.076;3.706;2022-11-06T09:38:46;11.90;;;2.65;;
32734;SDS011;19112;51.076;3.706;2022-11-06T09:41:22;17.63;;;3.35;;
32734;SDS011;19112;51.076;3.706;2022-11-06T09:46:49;16.70;;;3.10;;
32734;SDS011;19112;51.076;3.706;2022-11-06T09:54:35;16.05;;;2.88;;
32734;SDS011;19112;51.076;3.706;2022-11-06T09:57:09;8.85;;;2.83;;
32734;SDS011;19112;51.076;3.706;2022-11-06T09:59:43;14.63;;;2.90;;
32734;SDS011;19112;51.076;3.706;2022-11-06T10:02:18;16.20;;;2.70;;
32734;SDS011;19112;51.076;3.706;2022-11-06T10:08:12;8.98;;;2.72;;
32734;SDS011;19112;51.076;3.706;2022-11-06T10:17:10;14.15;;;2.90;;
32734;SDS011;19112;51.076;3.706;2022-11-06T10:19:58;10.13;;;2.30;;
32734;SDS011;19112;51.076;3.706;2022-11-06T10:22:39;10.63;;;2.50;;
32734;SDS011;19112;51.076;3.706;2022-11-06T10:25:21;11.50;;;2.60;;
32734;SDS011;19112;51.076;3.706;2022-11-06T10:28:04;13.32;;;3.17;;
32734;SDS011;19112;51.076;3.706;2022-11-06T10:36:28;12.82;;;3.03;;
32734;SDS011;19112;51.076;3.706;2022-11-06T10:39:15;11.98;;;3.40;;
32734;SDS011;19112;51.076;3.706;2022-11-06T10:41:57;14.43;;;3.00;;
32734;SDS011;19112;51.076;3.706;2022-11-06T10:47:21;9.88;;;2.63;;
32734;SDS011;19112;51.076;3.706;2022-11-06T10:49:52;12.57;;;3.05;;
32734;SDS011;19112;51.076;3.706;2022-11-06T10:52:40;13.95;;;2.75;;
32734;SDS011;19112;51.076;3.706;2022-11-06T10:58:19;10.73;;;2.45;;
32734;SDS011;19112;51.076;3.706;2022-11-06T11:00:47;12.20;;;2.80;;
32734;SDS011;19112;51.076;3.706;2022-11-06T11:08:40;15.48;;;3.10;;
32734;SDS011;19112;51.076;3.706;2022-11-06T11:13:41;12.68;;;2.85;;
32734;SDS011;19112;51.076;3.706;2022-11-06T11:16:31;10.50;;;2.60;;
32734;SDS011;19112;51.076;3.706;2022-11-06T11:19:36;11.15;;;2.47;;
32734;SDS011;19112;51.076;3.706;2022-11-06T11:22:03;13.07;;;2.70;;
32734;SDS011;19112;51.076;3.706;2022-11-06T11:24:57;14.82;;;2.78;;
32734;SDS011;19112;51.076;3.706;2022-11-06T11:27:29;12.50;;;2.88;;
32734;SDS011;19112;51.076;3.706;2022-11-06T11:30:18;13.88;;;3.30;;
32734;SDS011;19112;51.076;3.706;2022-11-06T11:32:53;12.30;;;2.83;;
32734;SDS011;19112;51.076;3.706;2022-11-06T11:35:25;14.25;;;2.72;;
32734;SDS011;19112;51.076;3.706;2022-11-06T11:38:03;16.30;;;3.45;;
32734;SDS011;19112;51.076;3.706;2022-11-06T11:40:39;17.00;;;3.80;;
32734;SDS011;19112;51.076;3.706;2022-11-06T11:51:34;7.18;;;2.90;;
32734;SDS011;19112;51.076;3.706;2022-11-06T11:54:15;10.93;;;2.60;;
32734;SDS011;19112;51.076;3.706;2022-11-06T11:59:43;14.45;;;2.97;;
32734;SDS011;19112;51.076;3.706;2022-11-06T12:04:58;17.73;;;3.28;;
32734;SDS011;19112;51.076;3.706;2022-11-06T12:07:39;14.65;;;3.40;;
32734;SDS011;19112;51.076;3.706;2022-11-06T12:12:59;17.02;;;3.95;;
32734;SDS011;19112;51.076;3.706;2022-11-06T12:18:24;13.02;;;3.65;;
32734;SDS011;19112;51.076;3.706;2022-11-06T12:29:20;17.52;;;4.10;;
32734;SDS011;19112;51.076;3.706;2022-11-06T12:40:44;20.33;;;4.07;;
32734;SDS011;19112;51.076;3.706;2022-11-06T12:43:46;13.52;;;3.60;;
32734;SDS011;19112;51.076;3.706;2022-11-06T12:54:35;18.50;;;5.88;;
32734;SDS011;19112;51.076;3.706;2022-11-06T13:10:29;14.77;;;3.92;;
32734;SDS011;19112;51.076;3.706;2022-11-06T13:13:15;10.75;;;2.80;;
32734;SDS011;19112;51.076;3.706;2022-11-06T13:16:17;8.40;;;2.40;;
32734;SDS011;19112;51.076;3.706;2022-11-06T13:19:17;10.65;;;2.65;;
32734;SDS011;19112;51.076;3.706;2022-11-06T13:25:13;12.65;;;3.35;;
32734;SDS011;19112;51.076;3.706;2022-11-06T13:30:30;22.58;;;3.67;;
32734;SDS011;19112;51.076;3.706;2022-11-06T13:35:26;12.32;;;3.38;;
32734;SDS011;19112;51.076;3.706;2022-11-06T13:37:53;18.10;;;5.65;;
32734;SDS011;19112;51.076;3.706;2022-11-06T13:43:02;11.65;;;3.72;;
32734;SDS011;19112;51.076;3.706;2022-11-06T13:45:40;16.13;;;4.03;;
32734;SDS011;19112;51.076;3.706;2022-11-06T14:00:19;20.33;;;6.47;;
32734;SDS011;19112;51.076;3.706;2022-11-06T14:02:52;26.98;;;10.15;;
32734;SDS011;19112;51.076;3.706;2022-11-06T14:08:22;15.73;;;4.70;;
32734;SDS011;19112;51.076;3.706;2022-11-06T14:13:53;16.00;;;5.45;;
32734;SDS011;19112;51.076;3.706;2022-11-06T14:16:49;17.25;;;5.57;;
32734;SDS011;19112;51.076;3.706;2022-11-06T14:24:48;14.80;;;4.25;;
32734;SDS011;19112;51.076;3.706;2022-11-06T14:32:43;13.45;;;4.00;;
32734;SDS011;19112;51.076;3.706;2022-11-06T14:40:34;14.98;;;4.20;;
32734;SDS011;19112;51.076;3.706;2022-11-06T14:43:16;13.82;;;3.80;;
32734;SDS011;19112;51.076;3.706;2022-11-06T14:45:52;11.55;;;3.67;;
32734;SDS011;19112;51.076;3.706;2022-11-06T14:48:38;11.43;;;3.92;;
32734;SDS011;19112;51.076;3.706;2022-11-06T14:51:10;14.93;;;4.05;;
32734;SDS011;19112;51.076;3.706;2022-11-06T14:53:39;15.02;;;4.80;;
32734;SDS011;19112;51.076;3.706;2022-11-06T14:56:22;15.43;;;4.22;;
32734;SDS011;19112;51.076;3.706;2022-11-06T14:59:08;11.13;;;3.60;;
32734;SDS011;19112;51.076;3.706;2022-11-06T15:01:54;14.95;;;4.60;;
32734;SDS011;19112;51.076;3.706;2022-11-06T15:04:43;18.55;;;7.60;;
32734;SDS011;19112;51.076;3.706;2022-11-06T15:08:16;10.07;;;4.20;;
32734;SDS011;19112;51.076;3.706;2022-11-06T15:13:11;17.60;;;3.97;;
32734;SDS011;19112;51.076;3.706;2022-11-06T15:15:44;13.85;;;3.92;;
32734;SDS011;19112;51.076;3.706;2022-11-06T15:18:38;14.45;;;4.53;;
32734;SDS011;19112;51.076;3.706;2022-11-06T15:21:08;16.65;;;5.22;;
32734;SDS011;19112;51.076;3.706;2022-11-06T15:23:56;17.63;;;7.50;;
32734;SDS011;19112;51.076;3.706;2022-11-06T15:26:50;24.77;;;11.45;;
32734;SDS011;19112;51.076;3.706;2022-11-06T15:29:23;34.95;;;22.83;;
32734;SDS011;19112;51.076;3.706;2022-11-06T15:31:51;24.95;;;11.70;;
32734;SDS011;19112;51.076;3.706;2022-11-06T15:37:10;18.35;;;7.30;;
32734;SDS011;19112;51.076;3.706;2022-11-06T15:39:51;82.78;;;34.88;;
32734;SDS011;19112;51.076;3.706;2022-11-06T15:42:19;33.75;;;15.82;;
32734;SDS011;19112;51.076;3.706;2022-11-06T15:47:29;20.65;;;10.32;;
32734;SDS011;19112;51.076;3.706;2022-11-06T15:52:39;24.05;;;9.38;;
32734;SDS011;19112;51.076;3.706;2022-11-06T15:55:05;36.22;;;23.60;;
32734;SDS011;19112;51.076;3.706;2022-11-06T15:57:36;28.08;;;11.90;;
32734;SDS011;19112;51.076;3.706;2022-11-06T16:00:08;21.20;;;6.65;;
32734;SDS011;19112;51.076;3.706;2022-11-06T16:05:21;21.52;;;9.35;;
32734;SDS011;19112;51.076;3.706;2022-11-06T16:07:50;18.67;;;8.95;;
32734;SDS011;19112;51.076;3.706;2022-11-06T16:10:17;14.65;;;6.10;;
32734;SDS011;19112;51.076;3.706;2022-11-06T16:12:45;16.05;;;5.35;;
32734;SDS011;19112;51.076;3.706;2022-11-06T16:18:23;17.42;;;7.03;;
32734;SDS011;19112;51.076;3.706;2022-11-06T16:23:51;15.52;;;5.57;;
32734;SDS011;19112;51.076;3.706;2022-11-06T16:29:01;19.35;;;6.20;;
32734;SDS011;19112;51.076;3.706;2022-11-06T16:31:40;27.50;;;13.70;;
32734;SDS011;19112;51.076;3.706;2022-11-06T16:39:46;39.25;;;25.23;;
32734;SDS011;19112;51.076;3.706;2022-11-06T16:47:48;22.25;;;10.35;;
32734;SDS011;19112;51.076;3.706;2022-11-06T16:50:40;19.55;;;8.43;;
32734;SDS011;19112;51.076;3.706;2022-11-06T16:53:18;15.73;;;7.43;;
32734;SDS011;19112;51.076;3.706;2022-11-06T16:58:43;20.08;;;7.93;;
32734;SDS011;19112;51.076;3.706;2022-11-06T17:01:43;30.15;;;16.05;;
32734;SDS011;19112;51.076;3.706;2022-11-06T17:04:18;54.40;;;41.75;;
32734;SDS011;19112;51.076;3.706;2022-11-06T17:06:46;35.95;;;24.40;;
32734;SDS011;19112;51.076;3.706;2022-11-06T17:11:56;57.15;;;42.55;;
32734;SDS011;19112;51.076;3.706;2022-11-06T17:14:23;32.95;;;21.88;;
32734;SDS011;19112;51.076;3.706;2022-11-06T17:16:53;38.25;;;21.83;;
32734;SDS011;19112;51.076;3.706;2022-11-06T17:19:25;25.17;;;13.48;;
32734;SDS011;19112;51.076;3.706;2022-11-06T17:21:52;23.35;;;12.05;;
32734;SDS011;19112;51.076;3.706;2022-11-06T17:24:19;20.63;;;9.57;;
32734;SDS011;19112;51.076;3.706;2022-11-06T17:26:46;19.88;;;8.93;;
32734;SDS011;19112;51.076;3.706;2022-11-06T17:29:14;18.83;;;8.13;;
32734;SDS011;19112;51.076;3.706;2022-11-06T17:31:40;20.02;;;8.05;;
32734;SDS011;19112;51.076;3.706;2022-11-06T17:34:08;21.33;;;9.48;;
32734;SDS011;19112;51.076;3.706;2022-11-06T17:36:34;19.48;;;8.45;;
32734;SDS011;19112;51.076;3.706;2022-11-06T17:39:02;30.08;;;14.05;;
32734;SDS011;19112;51.076;3.706;2022-11-06T17:41:29;44.63;;;27.15;;
32734;SDS011;19112;51.076;3.706;2022-11-06T17:43:58;66.00;;;42.38;;
32734;SDS011;19112;51.076;3.706;2022-11-06T17:46:29;72.28;;;49.08;;
32734;SDS011;19112;51.076;3.706;2022-11-06T17:49:00;59.05;;;39.13;;
32734;SDS011;19112;51.076;3.706;2022-11-06T17:51:27;46.13;;;30.35;;
32734;SDS011;19112;51.076;3.706;2022-11-06T17:54:13;67.10;;;42.55;;
32734;SDS011;19112;51.076;3.706;2022-11-06T17:56:39;37.55;;;20.90;;
32734;SDS011;19112;51.076;3.706;2022-11-06T17:59:06;34.97;;;19.70;;
32734;SDS011;19112;51.076;3.706;2022-11-06T18:01:33;27.05;;;13.65;;
32734;SDS011;19112;51.076;3.706;2022-11-06T18:03:59;29.30;;;12.57;;
32734;SDS011;19112;51.076;3.706;2022-11-06T18:06:25;22.58;;;11.23;;
32734;SDS011;19112;51.076;3.706;2022-11-06T18:08:54;23.67;;;12.10;;
32734;SDS011;19112;51.076;3.706;2022-11-06T18:11:21;26.55;;;12.00;;
32734;SDS011;19112;51.076;3.706;2022-11-06T18:13:48;24.17;;;12.88;;
32734;SDS011;19112;51.076;3.706;2022-11-06T18:16:18;24.15;;;11.45;;
32734;SDS011;19112;51.076;3.706;2022-11-06T18:18:48;25.98;;;13.57;;
32734;SDS011;19112;51.076;3.706;2022-11-06T18:21:14;21.70;;;11.05;;
32734;SDS011;19112;51.076;3.706;2022-11-06T18:23:40;22.08;;;9.98;;
32734;SDS011;19112;51.076;3.706;2022-11-06T18:26:07;27.70;;;11.15;;
32734;SDS011;19112;51.076;3.706;2022-11-06T18:28:33;23.95;;;10.15;;
32734;SDS011;19112;51.076;3.706;2022-11-06T18:30:59;30.45;;;11.48;;
32734;SDS011;19112;51.076;3.706;2022-11-06T18:33:26;28.27;;;11.57;;
32734;SDS011;19112;51.076;3.706;2022-11-06T18:35:53;22.77;;;10.48;;
32734;SDS011;19112;51.076;3.706;2022-11-06T18:38:27;19.13;;;9.02;;
32734;SDS011;19112;51.076;3.706;2022-11-06T18:40:53;26.67;;;12.60;;
32734;SDS011;19112;51.076;3.706;2022-11-06T18:43:18;37.33;;;25.85;;
32734;SDS011;19112;51.076;3.706;2022-11-06T18:45:44;44.58;;;34.50;;
32734;SDS011;19112;51.076;3.706;2022-11-06T18:48:10;36.75;;;22.42;;
32734;SDS011;19112;51.076;3.706;2022-11-06T18:50:36;29.40;;;14.13;;
32734;SDS011;19112;51.076;3.706;2022-11-06T18:53:02;28.23;;;13.55;;